Time;durP1;ratioP1;P1;durP2;ratioP2;P2;SDS_P1;SDS_P2;PMS_P1;PMS_P2;Temp;Humidity;BMP_temperature;BMP_pressure;BME280_temperature;BME280_humidity;BME280_pressure;Samples;Min_cycle;Max_cycle;Signal;HPM_P1;HPM_P2
2022/01/07 00:00:34;;;;;;;26.20;14.45;;;;;;;3.45;79.65;100056.47;1769822;79;21716;-49
2022/01/07 00:03:40;;;;;;;25.52;14.90;;;;;;;3.46;79.65;100064.93;1770106;80;21173;-49
2022/01/07 00:06:45;;;;;;;28.67;15.90;;;;;;;3.47;79.63;100088.30;1769704;79;21275;-50
2022/01/07 00:09:51;;;;;;;28.32;15.65;;;;;;;3.46;79.61;100084.36;1734920;82;21207;-50
2022/01/07 00:12:58;;;;;;;29.10;15.20;;;;;;;3.43;79.63;100100.38;1770581;80;21224;-49
2022/01/07 00:16:03;;;;;;;28.05;14.83;;;;;;;3.38;79.63;100087.76;1770976;79;21779;-49
2022/01/07 00:19:10;;;;;;;30.60;15.60;;;;;;;3.36;79.72;100091.13;1770744;80;21304;-50
2022/01/07 00:22:15;;;;;;;27.48;15.20;;;;;;;3.35;79.86;100081.76;1770935;79;21193;-50
2022/01/07 00:25:22;;;;;;;26.20;14.98;;;;;;;3.34;79.93;100074.16;1770672;79;21843;-49
2022/01/07 00:28:29;;;;;;;30.37;16.10;;;;;;;3.32;79.99;100086.97;1762006;80;21200;-49
2022/01/07 00:31:35;;;;;;;27.70;15.35;;;;;;;3.31;80.01;100085.27;1769518;80;21936;-49
2022/01/07 00:34:40;;;;;;;33.65;15.95;;;;;;;3.26;80.03;100082.11;1771004;80;21663;-50
2022/01/07 00:37:45;;;;;;;29.67;13.00;;;;;;;3.22;80.17;100094.17;1770336;80;21887;-50
2022/01/07 00:40:51;;;;;;;25.23;13.38;;;;;;;3.20;80.30;100094.83;1770752;80;21212;-49
2022/01/07 00:43:56;;;;;;;26.33;13.60;;;;;;;3.17;80.39;100104.58;1770286;80;21219;-50
2022/01/07 00:47:03;;;;;;;24.50;13.78;;;;;;;3.15;80.49;100087.62;1770856;80;21360;-50
2022/01/07 00:50:08;;;;;;;22.73;12.53;;;;;;;3.11;80.57;100101.03;1770644;81;21236;-49
2022/01/07 00:53:13;;;;;;;22.48;12.85;;;;;;;3.05;80.66;100115.09;1771729;80;21165;-51
2022/01/07 00:56:20;;;;;;;21.48;11.68;;;;;;;3.01;80.87;100102.86;1770909;80;21256;-49
2022/01/07 00:59:25;;;;;;;20.20;12.70;;;;;;;2.97;81.05;100105.45;1771121;80;21332;-51
2022/01/07 01:02:35;;;;;;;26.07;12.28;;;;;;;2.93;81.20;100109.43;1771290;80;21296;-49
2022/01/07 01:05:42;;;;;;;25.40;13.72;;;;;;;2.87;81.38;100112.67;1770413;80;21218;-51
2022/01/07 01:08:47;;;;;;;20.85;12.07;;;;;;;2.84;81.62;100116.97;1769369;80;21891;-50
2022/01/07 01:11:56;;;;;;;19.27;11.60;;;;;;;2.79;81.83;100109.27;1771055;80;21307;-50
2022/01/07 01:15:03;;;;;;;22.77;12.85;;;;;;;2.77;82.05;100111.75;1767799;80;21248;-50
2022/01/07 01:18:09;;;;;;;20.82;11.33;;;;;;;2.72;82.25;100114.86;1770803;80;21236;-49
2022/01/07 01:21:14;;;;;;;21.87;12.43;;;;;;;2.67;82.45;100104.08;1770318;81;21347;-50
2022/01/07 01:24:19;;;;;;;24.80;11.90;;;;;;;2.62;82.63;100107.17;1771583;80;21316;-50
2022/01/07 01:27:25;;;;;;;18.75;12.25;;;;;;;2.58;82.84;100111.63;1769348;80;21240;-49
2022/01/07 01:30:33;;;;;;;23.07;11.35;;;;;;;2.54;83.07;100111.03;1770870;81;21217;-49
2022/01/07 01:33:40;;;;;;;21.57;12.45;;;;;;;2.52;83.21;100116.22;1771026;80;21351;-50
2022/01/07 01:36:48;;;;;;;23.42;13.03;;;;;;;2.48;83.38;100119.67;1730718;80;21587;-50
2022/01/07 01:39:53;;;;;;;21.42;12.03;;;;;;;2.44;83.55;100116.02;1730549;83;21913;-50
2022/01/07 01:43:01;;;;;;;22.22;12.13;;;;;;;2.42;83.68;100113.93;1730632;83;21339;-50
2022/01/07 01:46:06;;;;;;;24.25;13.28;;;;;;;2.37;83.79;100109.41;1730178;83;21375;-50
2022/01/07 01:49:12;;;;;;;20.48;12.80;;;;;;;2.33;83.95;100105.27;1730428;82;21185;-49
2022/01/07 01:52:17;;;;;;;25.62;13.32;;;;;;;2.33;84.08;100120.12;1730334;83;21216;-50
2022/01/07 01:55:23;;;;;;;24.23;12.13;;;;;;;2.28;84.19;100108.85;1745662;80;21188;-50
2022/01/07 01:58:29;;;;;;;20.68;12.70;;;;;;;2.25;84.32;100114.00;1767647;80;21187;-51
2022/01/07 02:01:34;;;;;;;21.15;11.68;;;;;;;2.20;84.42;100128.41;1766295;80;21216;-50
2022/01/07 02:04:40;;;;;;;21.30;11.97;;;;;;;2.18;84.54;100124.11;1766604;80;21180;-51
2022/01/07 02:07:49;;;;;;;20.77;13.45;;;;;;;2.14;84.64;100122.67;1767110;81;21173;-51
2022/01/07 02:10:57;;;;;;;18.90;11.75;;;;;;;2.10;84.78;100132.86;1767968;80;21343;-50
2022/01/07 02:14:04;;;;;;;21.35;13.25;;;;;;;2.08;84.95;100135.34;1768833;80;21745;-51
2022/01/07 02:17:20;;;;;;;24.92;13.62;;;;;;;2.05;85.09;100139.61;1770513;79;21220;-51
2022/01/07 02:20:31;;;;;;;20.92;13.62;;;;;;;2.03;85.18;100144.31;1770336;79;21216;-51
2022/01/07 02:23:40;;;;;;;21.62;13.45;;;;;;;2.02;85.25;100150.67;1770368;81;21180;-51
2022/01/07 02:26:47;;;;;;;23.57;13.40;;;;;;;2.02;85.28;100160.11;1770596;79;21402;-51
2022/01/07 02:29:54;;;;;;;19.95;12.90;;;;;;;2.00;85.29;100169.69;1771062;80;21288;-51
2022/01/07 02:33:01;;;;;;;20.05;13.08;;;;;;;1.99;85.30;100167.13;1771550;80;21225;-51
2022/01/07 02:36:06;;;;;;;22.17;12.78;;;;;;;1.99;85.35;100170.69;1770003;79;21217;-51
2022/01/07 02:39:10;;;;;;;20.77;12.43;;;;;;;2.00;85.35;100175.60;1762971;80;21216;-51
2022/01/07 02:42:19;;;;;;;18.10;11.75;;;;;;;2.01;85.32;100175.95;1770389;79;21259;-50
2022/01/07 02:45:25;;;;;;;20.95;12.00;;;;;;;2.02;85.32;100177.66;1770577;79;22285;-50
2022/01/07 02:48:32;;;;;;;19.73;12.82;;;;;;;2.01;85.32;100179.53;1770384;80;21519;-51
2022/01/07 02:51:38;;;;;;;19.20;12.20;;;;;;;2.06;85.32;100187.23;1771255;79;21201;-51
2022/01/07 02:54:43;;;;;;;21.27;13.43;;;;;;;2.12;85.20;100190.77;1770258;81;21208;-51
2022/01/07 02:57:52;;;;;;;24.67;12.73;;;;;;;2.18;85.05;100189.77;1770403;81;21194;-51
2022/01/07 03:00:57;;;;;;;19.92;12.10;;;;;;;2.23;84.86;100195.66;1769228;79;21220;-51
2022/01/07 03:04:02;;;;;;;17.30;10.90;;;;;;;2.30;84.72;100196.84;1768257;81;21244;-51
2022/01/07 03:07:10;;;;;;;19.57;12.73;;;;;;;2.39;84.46;100201.48;1768784;80;21492;-52
2022/01/07 03:10:16;;;;;;;17.02;11.05;;;;;;;2.48;84.18;100210.64;1768477;80;21550;-52
2022/01/07 03:13:21;;;;;;;18.35;11.80;;;;;;;2.53;83.74;100207.94;1768621;80;21722;-51
2022/01/07 03:16:30;;;;;;;17.07;11.45;;;;;;;2.61;83.37;100218.09;1769526;80;21209;-51
2022/01/07 03:19:35;;;;;;;17.77;10.55;;;;;;;2.67;82.77;100220.27;1768924;80;21240;-51
2022/01/07 03:22:40;;;;;;;14.40;9.93;;;;;;;2.64;82.12;100224.58;1768699;80;21344;-52
2022/01/07 03:25:48;;;;;;;15.18;10.25;;;;;;;2.55;81.68;100213.20;1768171;80;21289;-52
2022/01/07 03:28:52;;;;;;;15.23;10.48;;;;;;;2.47;81.46;100209.81;1769040;80;21558;-52
2022/01/07 03:31:58;;;;;;;14.98;10.80;;;;;;;2.38;81.34;100220.01;1768535;81;21731;-52
2022/01/07 03:35:04;;;;;;;16.93;11.10;;;;;;;2.33;81.36;100222.23;1768329;80;21390;-52
2022/01/07 03:38:09;;;;;;;15.18;10.05;;;;;;;2.29;81.34;100209.12;1770829;80;21181;-51
2022/01/07 03:41:16;;;;;;;15.93;10.82;;;;;;;2.24;81.46;100220.79;1771103;80;21228;-52
2022/01/07 03:44:21;;;;;;;14.87;10.43;;;;;;;2.21;81.70;100221.05;1771042;80;21391;-51
2022/01/07 03:47:26;;;;;;;18.82;11.12;;;;;;;2.19;81.86;100225.23;1770815;79;21221;-51
2022/01/07 03:50:35;;;;;;;17.92;11.75;;;;;;;2.16;82.05;100227.31;1771308;79;21224;-50
2022/01/07 03:53:41;;;;;;;17.60;12.50;;;;;;;2.12;82.25;100238.02;1771380;80;21714;-52
2022/01/07 03:56:47;;;;;;;17.27;11.60;;;;;;;2.09;82.41;100235.09;1771088;79;21216;-52
2022/01/07 03:59:53;;;;;;;21.55;12.98;;;;;;;2.04;82.58;100244.05;1770931;80;21265;-52
2022/01/07 04:02:59;;;;;;;20.00;12.93;;;;;;;2.01;82.74;100238.04;1770548;81;21327;-52
2022/01/07 04:06:05;;;;;;;19.77;12.70;;;;;;;1.98;82.88;100251.31;1770522;79;21331;-51
2022/01/07 04:09:10;;;;;;;20.68;12.30;;;;;;;1.94;83.03;100255.70;1770892;81;21217;-52
2022/01/07 04:12:18;;;;;;;22.77;13.25;;;;;;;1.91;83.11;100253.26;1770473;79;21982;-51
2022/01/07 04:15:23;;;;;;;18.02;11.22;;;;;;;1.90;83.19;100260.52;1764174;79;21358;-52
2022/01/07 04:18:29;;;;;;;20.08;12.47;;;;;;;1.87;83.25;100263.44;1771082;80;21165;-53
2022/01/07 04:21:35;;;;;;;18.95;12.55;;;;;;;1.85;83.32;100266.77;1770662;79;21251;-50
2022/01/07 04:24:41;;;;;;;20.20;11.68;;;;;;;1.84;83.33;100274.99;1770923;80;21287;-51
2022/01/07 04:27:49;;;;;;;17.15;10.90;;;;;;;1.83;83.33;100275.95;1770808;80;21192;-51
2022/01/07 04:30:54;;;;;;;20.48;11.95;;;;;;;1.79;83.29;100279.41;1770393;80;21277;-51
2022/01/07 04:34:02;;;;;;;18.52;11.25;;;;;;;1.77;83.25;100281.84;1770847;80;21475;-52
2022/01/07 04:37:08;;;;;;;16.15;10.35;;;;;;;1.74;83.26;100275.35;1769905;80;21593;-51
2022/01/07 04:40:15;;;;;;;18.27;12.35;;;;;;;1.70;83.25;100284.17;1770519;80;21230;-50
2022/01/07 04:43:22;;;;;;;18.77;11.78;;;;;;;1.68;83.27;100287.51;1783279;80;21328;-50
2022/01/07 04:46:26;;;;;;;17.75;11.70;;;;;;;1.66;83.29;100288.11;1770646;80;21183;-51
2022/01/07 04:49:38;;;;;;;17.73;11.28;;;;;;;1.65;83.33;100296.33;1770784;80;21171;-51
2022/01/07 04:52:45;;;;;;;17.48;12.00;;;;;;;1.64;83.34;100302.69;1770512;81;21250;-51
2022/01/07 04:55:51;;;;;;;17.17;11.05;;;;;;;1.63;83.36;100311.77;1770859;80;21254;-51
2022/01/07 04:58:56;;;;;;;16.48;11.30;;;;;;;1.61;83.37;100313.72;1770348;80;21193;-51
2022/01/07 05:02:03;;;;;;;18.07;10.72;;;;;;;1.59;83.42;100318.41;1768843;80;21347;-51
2022/01/07 05:05:09;;;;;;;17.73;11.63;;;;;;;1.59;83.52;100321.09;1769747;80;21166;-51
2022/01/07 05:08:16;;;;;;;17.35;10.72;;;;;;;1.59;83.56;100329.19;1769895;80;21358;-51
2022/01/07 05:11:21;;;;;;;16.23;10.45;;;;;;;1.62;83.55;100335.69;1769142;80;21705;-51
2022/01/07 05:14:29;;;;;;;15.90;10.63;;;;;;;1.64;83.50;100336.41;1769694;79;21344;-51
2022/01/07 05:17:34;;;;;;;18.07;10.98;;;;;;;1.72;83.18;100353.72;1769389;80;21453;-51
2022/01/07 05:20:39;;;;;;;15.45;10.35;;;;;;;1.79;82.88;100356.80;1769129;81;21360;-51
2022/01/07 05:23:44;;;;;;;16.30;10.45;;;;;;;1.86;82.57;100351.27;1769575;81;21193;-51
2022/01/07 05:26:51;;;;;;;16.67;10.35;;;;;;;1.92;82.29;100362.95;1769942;81;21766;-53
2022/01/07 05:29:57;;;;;;;15.13;10.18;;;;;;;1.97;82.09;100366.98;1735161;82;21231;-50
2022/01/07 05:33:04;;;;;;;20.50;10.58;;;;;;;2.04;81.82;100366.88;1699427;84;21231;-51
2022/01/07 05:36:08;;;;;;;13.78;8.78;;;;;;;2.10;81.52;100369.08;1770323;80;21260;-51
2022/01/07 05:39:15;;;;;;;14.40;8.53;;;;;;;2.16;81.17;100375.81;1735352;82;21817;-51
2022/01/07 05:42:20;;;;;;;11.22;8.23;;;;;;;2.21;80.90;100375.83;1735277;82;21829;-51
2022/01/07 05:45:26;;;;;;;11.20;7.97;;;;;;;2.28;80.59;100384.30;1721447;83;21365;-51
2022/01/07 05:48:32;;;;;;;12.40;8.63;;;;;;;2.30;80.34;100391.28;1734443;82;21231;-51
2022/01/07 05:51:37;;;;;;;11.35;7.83;;;;;;;2.34;79.97;100397.30;1721040;82;21348;-50
2022/01/07 05:54:43;;;;;;;11.55;8.75;;;;;;;2.38;79.76;100398.79;1721137;83;21213;-51
2022/01/07 05:57:50;;;;;;;12.55;9.88;;;;;;;2.38;79.40;100406.37;1721639;83;21367;-51
2022/01/07 06:00:56;;;;;;;11.80;8.18;;;;;;;2.41;79.23;100414.75;1730833;81;21256;-51
2022/01/07 06:04:05;;;;;;;13.45;9.88;;;;;;;2.42;79.08;100425.91;1735683;82;21205;-52
2022/01/07 06:07:10;;;;;;;15.23;9.50;;;;;;;2.44;78.89;100445.05;1722072;82;21388;-52
2022/01/07 06:10:17;;;;;;;13.05;8.18;;;;;;;2.45;78.68;100431.92;1731176;81;21201;-51
2022/01/07 06:13:30;;;;;;;10.43;7.83;;;;;;;2.47;78.47;100437.20;1703870;83;21178;-51
2022/01/07 06:16:36;;;;;;;10.03;7.05;;;;;;;2.47;78.22;100446.66;1698180;83;21260;-51
2022/01/07 06:19:45;;;;;;;13.05;8.05;;;;;;;2.51;78.17;100450.34;1741490;82;21371;-52
2022/01/07 06:22:54;;;;;;;9.93;6.50;;;;;;;2.54;77.98;100441.11;1741538;82;21339;-52
2022/01/07 06:26:01;;;;;;;19.12;11.05;;;;;;;2.56;77.96;100446.78;1741754;81;21378;-52
2022/01/07 06:29:08;;;;;;;13.25;10.05;;;;;;;2.60;77.84;100446.88;1742564;82;21852;-53
2022/01/07 06:32:17;;;;;;;9.85;7.20;;;;;;;2.59;77.76;100451.06;1764205;81;21221;-52
2022/01/07 06:35:24;;;;;;;9.90;7.05;;;;;;;2.54;77.67;100447.87;1770028;80;21270;-52
2022/01/07 06:38:30;;;;;;;10.30;7.92;;;;;;;2.47;77.68;100449.36;1770081;80;21181;-53
2022/01/07 06:41:35;;;;;;;10.13;7.22;;;;;;;2.39;77.65;100448.63;1770231;80;21217;-53
2022/01/07 06:44:42;;;;;;;10.65;8.03;;;;;;;2.36;77.68;100459.66;1770352;80;21821;-51
2022/01/07 06:47:50;;;;;;;11.55;8.28;;;;;;;2.35;77.73;100469.23;1770721;80;21359;-51
2022/01/07 06:50:56;;;;;;;13.00;6.95;;;;;;;2.35;77.77;100474.63;1770338;80;21897;-51
2022/01/07 06:54:05;;;;;;;13.78;8.33;;;;;;;2.33;77.75;100480.67;1766296;81;21375;-52
2022/01/07 06:57:10;;;;;;;21.57;12.18;;;;;;;2.31;77.76;100478.57;1772111;79;21340;-51
2022/01/07 07:00:17;;;;;;;53.65;26.27;;;;;;;2.29;77.75;100483.23;1771924;79;21808;-52
2022/01/07 07:03:22;;;;;;;26.93;15.30;;;;;;;2.29;77.76;100487.27;1763892;80;21189;-51
2022/01/07 07:06:26;;;;;;;17.37;11.95;;;;;;;2.34;77.76;100480.55;1773768;79;21197;-52
2022/01/07 07:09:32;;;;;;;14.00;9.50;;;;;;;2.38;77.72;100486.58;1772416;80;21197;-50
2022/01/07 07:12:41;;;;;;;14.23;11.35;;;;;;;2.35;77.70;100493.53;1772094;80;21323;-51
2022/01/07 07:15:46;;;;;;;14.18;11.45;;;;;;;2.33;77.80;100495.52;1770418;79;21209;-51
2022/01/07 07:18:53;;;;;;;14.95;10.78;;;;;;;2.32;77.89;100504.59;1770021;81;21244;-51
2022/01/07 07:21:58;;;;;;;9.90;8.08;;;;;;;2.37;77.98;100502.39;1770052;79;21217;-51
2022/01/07 07:25:02;;;;;;;10.45;7.58;;;;;;;2.42;77.87;100503.76;1769817;81;21260;-52
2022/01/07 07:28:11;;;;;;;7.83;6.70;;;;;;;2.51;77.77;100511.61;1771165;80;21232;-52
2022/01/07 07:31:18;;;;;;;10.63;8.10;;;;;;;2.60;77.73;100516.30;1770375;79;21185;-52
2022/01/07 07:37:41;;;;;;;10.15;7.20;;;;;;;2.75;77.23;100523.16;1770603;81;21745;-51
2022/01/07 07:40:46;;;;;;;9.60;7.12;;;;;;;2.77;76.95;100536.94;1770874;79;21264;-51
2022/01/07 07:43:53;;;;;;;12.30;8.10;;;;;;;2.76;76.76;100527.09;1770940;81;21200;-52
2022/01/07 07:47:02;;;;;;;12.05;7.53;;;;;;;2.74;76.58;100543.08;1771056;79;21213;-53
2022/01/07 07:50:09;;;;;;;13.85;7.37;;;;;;;2.77;76.69;100552.29;1770248;79;21253;-52
2022/01/07 07:53:15;;;;;;;9.03;6.40;;;;;;;2.85;76.56;100549.83;1770727;81;21277;-53
2022/01/07 07:56:28;;;;;;;11.75;7.17;;;;;;;2.89;76.23;100556.70;1770846;79;21228;-51
2022/01/07 07:59:36;;;;;;;13.18;7.12;;;;;;;2.84;75.78;100560.26;1770464;81;21343;-51
2022/01/07 08:02:44;;;;;;;12.73;7.35;;;;;;;2.78;75.79;100564.33;1770505;81;21235;-50
2022/01/07 08:05:51;;;;;;;13.20;7.72;;;;;;;2.78;75.67;100575.62;1763770;79;21807;-51
2022/01/07 08:08:57;;;;;;;13.50;7.83;;;;;;;2.82;75.66;100579.81;1770301;80;21737;-51
2022/01/07 08:12:17;;;;;;;13.00;7.65;;;;;;;2.91;75.46;100597.52;1770448;79;21359;-50
2022/01/07 08:18:42;;;;;;;9.08;6.17;;;;;;;2.93;75.23;100590.13;1770515;80;21197;-51
2022/01/07 08:21:49;;;;;;;6.87;5.17;;;;;;;2.97;75.24;100605.61;1771177;79;21284;-57
2022/01/07 08:24:55;;;;;;;6.47;5.10;;;;;;;2.99;75.04;100607.71;1771302;81;21243;-52
2022/01/07 08:28:04;;;;;;;9.70;6.00;;;;;;;2.98;74.91;100608.70;1770727;81;21269;-51
2022/01/07 08:37:40;;;;;;;10.23;6.08;;;;;;;2.98;74.57;100632.53;1770900;80;21263;-52
2022/01/07 08:40:47;;;;;;;8.85;6.12;;;;;;;3.00;74.60;100639.16;1770877;79;21865;-52
2022/01/07 08:43:53;;;;;;;6.67;4.97;;;;;;;3.01;74.55;100643.09;1770731;81;21169;-52
2022/01/07 08:47:00;;;;;;;6.08;4.72;;;;;;;3.07;74.47;100636.36;1770485;79;21221;-51
2022/01/07 08:50:09;;;;;;;6.00;4.05;;;;;;;3.11;74.44;100654.05;1770504;79;21666;-51
2022/01/07 08:53:15;;;;;;;5.72;4.10;;;;;;;3.08;74.30;100648.88;1771097;80;21764;-51
2022/01/07 08:56:23;;;;;;;6.00;4.00;;;;;;;2.97;74.32;100648.88;1770779;79;21200;-51
2022/01/07 08:59:28;;;;;;;6.22;4.37;;;;;;;2.88;74.51;100652.31;1771007;80;21208;-49
2022/01/07 09:02:35;;;;;;;7.05;4.28;;;;;;;2.81;74.63;100661.88;1770912;80;21194;-51
2022/01/07 09:05:42;;;;;;;5.33;3.60;;;;;;;2.78;74.73;100664.34;1770720;79;21232;-51
2022/01/07 09:08:49;;;;;;;4.70;3.20;;;;;;;2.76;74.77;100666.77;1763657;80;21201;-53
2022/01/07 09:11:55;;;;;;;5.03;2.90;;;;;;;2.79;74.66;100676.02;1770250;79;21200;-51
2022/01/07 09:15:00;;;;;;;5.97;3.58;;;;;;;2.85;74.52;100683.64;1769765;81;21193;-51
2022/01/07 09:18:15;;;;;;;3.95;2.60;;;;;;;2.86;74.37;100678.59;1769474;79;21204;-52
2022/01/07 09:21:14;;;;;;;5.72;2.92;;;;;;;2.90;73.32;100697.67;1770781;79;21208;-51
2022/01/07 09:24:19;;;;;;;4.60;3.10;;;;;;;2.92;72.66;100689.80;1769575;81;21189;-52
2022/01/07 09:27:24;;;;;;;6.33;4.12;;;;;;;2.98;72.49;100693.36;1752030;81;21201;-51
2022/01/07 09:30:36;;;;;;;4.85;3.25;;;;;;;3.05;71.92;100701.37;1749388;81;21267;-51
2022/01/07 09:33:43;;;;;;;3.17;2.37;;;;;;;3.15;71.80;100704.22;1751720;81;21589;-52
2022/01/07 09:36:50;;;;;;;2.90;1.92;;;;;;;3.25;70.68;100716.02;1749877;81;21260;-51
2022/01/07 09:39:56;;;;;;;4.40;2.72;;;;;;;3.38;69.83;100733.52;1748210;81;21232;-51
2022/01/07 09:43:08;;;;;;;3.85;2.72;;;;;;;3.43;68.58;100733.50;1751974;81;21923;-51
2022/01/07 09:46:14;;;;;;;4.30;3.22;;;;;;;3.44;67.79;100725.75;1750135;81;21300;-51
2022/01/07 09:49:22;;;;;;;5.08;2.92;;;;;;;3.46;67.93;100744.08;1748197;81;21366;-52
2022/01/07 09:52:27;;;;;;;4.92;2.75;;;;;;;3.51;67.25;100735.11;1752505;81;21308;-51
2022/01/07 09:55:36;;;;;;;3.33;2.15;;;;;;;3.48;66.62;100735.36;1748964;81;21240;-51
2022/01/07 09:58:42;;;;;;;3.35;2.50;;;;;;;3.44;65.49;100735.73;1767211;81;21259;-50
2022/01/07 10:02:11;;;;;;;4.92;2.47;;;;;;;3.39;65.62;100748.76;1733989;80;21343;-50
2022/01/07 10:05:25;;;;;;;3.12;2.42;;;;;;;3.39;65.57;100748.76;1755151;81;21259;-50
2022/01/07 10:08:34;;;;;;;3.87;3.12;;;;;;;3.40;65.00;100754.52;1750104;81;21710;-50
2022/01/07 10:11:44;;;;;;;5.00;2.70;;;;;;;3.38;64.95;100753.81;1751758;81;21212;-52
2022/01/07 10:14:50;;;;;;;3.62;2.27;;;;;;;3.35;64.91;100761.66;1749430;81;21188;-51
2022/01/07 10:18:05;;;;;;;2.55;2.20;;;;;;;3.35;64.55;100752.67;1758596;81;21699;-50
2022/01/07 10:21:17;;;;;;;3.25;2.33;;;;;;;3.39;64.29;100758.23;1743104;81;21205;-51
2022/01/07 10:24:22;;;;;;;3.37;2.33;;;;;;;3.39;63.88;100757.75;1747878;81;21177;-51
2022/01/07 10:27:29;;;;;;;2.75;2.20;;;;;;;3.35;63.57;100765.72;1754613;79;21236;-52
2022/01/07 10:30:34;;;;;;;2.90;2.20;;;;;;;3.40;63.79;100760.81;1756189;81;21201;-52
2022/01/07 10:33:49;;;;;;;3.10;2.33;;;;;;;3.45;63.84;100782.96;1734895;82;21199;-52
2022/01/07 10:36:55;;;;;;;3.12;2.10;;;;;;;3.48;62.36;100765.13;1697271;84;21955;-50
2022/01/07 10:40:00;;;;;;;3.35;2.20;;;;;;;3.49;61.83;100769.55;1695343;82;21271;-51
2022/01/07 10:43:32;;;;;;;6.70;3.10;;;;;;;3.56;61.78;100784.80;1705152;83;21207;-51
2022/01/07 10:46:43;;;;;;;2.17;1.90;;;;;;;3.54;61.27;100782.22;1691553;83;21240;-50
2022/01/07 10:49:48;;;;;;;3.27;2.20;;;;;;;3.46;60.77;100794.14;1690303;84;21371;-51
2022/01/07 10:52:53;;;;;;;2.85;2.27;;;;;;;3.38;61.21;100803.87;1766623;81;21332;-53
2022/01/07 10:56:18;;;;;;;11.22;4.70;;;;;;;3.27;60.63;100815.50;1769104;80;21869;-52
2022/01/07 10:59:23;;;;;;;;;;;;;;;3.14;60.80;100823.34;1771415;81;21276;-52
2022/01/07 11:02:41;;;;;;;8.90;6.12;;;;;;;3.02;61.05;100812.97;1768359;81;20325;-52
2022/01/07 11:05:50;;;;;;;8.00;5.05;;;;;;;2.91;61.21;100821.91;1767976;80;21371;-51
2022/01/07 11:08:59;;;;;;;4.22;2.98;;;;;;;2.80;61.70;100825.92;1731436;80;22209;-51
2022/01/07 11:12:08;;;;;;;5.80;3.30;;;;;;;2.75;62.21;100833.99;1729087;82;21980;-51
2022/01/07 11:15:14;;;;;;;3.67;2.40;;;;;;;2.77;62.58;100841.50;1728764;83;21472;-52
2022/01/07 11:18:19;;;;;;;5.12;3.12;;;;;;;2.82;62.47;100841.52;1738663;80;21165;-52
2022/01/07 11:21:25;;;;;;;3.42;2.25;;;;;;;2.83;62.44;100836.50;1762453;79;21192;-50
2022/01/07 11:24:54;;;;;;;3.52;2.45;;;;;;;2.82;62.32;100840.67;1764101;80;21185;-52
2022/01/07 11:28:02;;;;;;;3.12;2.00;;;;;;;2.83;62.09;100838.33;1770191;80;21197;-52
2022/01/07 11:31:21;;;;;;;5.62;2.80;;;;;;;2.92;61.64;100840.33;1763422;80;21193;-52
2022/01/07 11:34:33;;;;;;;5.42;3.52;;;;;;;2.98;61.18;100848.00;1762994;81;21225;-52
2022/01/07 11:37:46;;;;;;;;;;;;;;;3.08;60.74;100858.98;1765519;81;21211;-51
2022/01/07 11:40:54;;;;;;;2.25;1.60;;;;;;;3.12;59.14;100865.39;1763196;80;20591;-52
2022/01/07 11:44:01;;;;;;;2.60;1.70;;;;;;;3.18;58.82;100857.28;1763292;80;21684;-52
2022/01/07 11:47:29;;;;;;;2.98;2.17;;;;;;;3.24;57.99;100882.50;1766303;81;21208;-52
2022/01/07 11:50:40;;;;;;;4.25;2.22;;;;;;;3.20;57.68;100893.20;1769681;79;21221;-51
2022/01/07 11:53:59;;;;;;;3.05;2.10;;;;;;;3.07;56.02;100902.73;1770539;81;21198;-53
2022/01/07 11:57:08;;;;;;;3.37;2.30;;;;;;;2.96;54.74;100893.22;1739405;81;21258;-52
2022/01/07 12:00:18;;;;;;;3.12;1.95;;;;;;;2.86;54.35;100894.87;1763884;81;21252;-51
2022/01/07 12:03:56;;;;;;;4.28;2.67;;;;;;;2.80;53.62;100915.13;1767227;81;21181;-51
2022/01/07 12:07:06;;;;;;;4.75;2.83;;;;;;;2.74;53.95;100891.23;1739565;81;21551;-53
2022/01/07 12:10:19;;;;;;;3.37;2.25;;;;;;;2.73;53.59;100920.60;1739197;82;21248;-50
2022/01/07 12:13:27;;;;;;;5.12;2.75;;;;;;;2.70;53.37;100920.83;1739670;82;21196;-52
2022/01/07 12:16:37;;;;;;;3.05;1.80;;;;;;;2.69;53.92;100917.77;1738621;81;21725;-53
2022/01/07 12:19:59;;;;;;;4.42;1.98;;;;;;;2.70;53.63;100926.72;1739839;81;21196;-52
2022/01/07 12:23:07;;;;;;;3.02;1.80;;;;;;;2.70;53.64;100963.20;1765391;80;21161;-52
2022/01/07 12:26:12;;;;;;;3.45;2.00;;;;;;;2.68;53.27;100932.75;1770237;79;21217;-52
2022/01/07 12:29:25;;;;;;;3.87;2.00;;;;;;;2.69;53.08;100955.61;1768883;80;21192;-52
2022/01/07 12:32:39;;;;;;;3.00;1.90;;;;;;;2.74;53.42;100959.31;1770108;79;21208;-53
2022/01/07 12:35:43;;;;;;;2.75;2.05;;;;;;;2.79;52.69;100957.15;1770009;79;21228;-51
2022/01/07 12:38:51;;;;;;;4.97;2.40;;;;;;;2.82;52.49;100961.81;1769836;80;21252;-52
2022/01/07 12:42:03;;;;;;;3.67;2.52;;;;;;;2.82;52.59;100970.44;1744034;80;21177;-51
2022/01/07 12:45:07;;;;;;;3.95;2.17;;;;;;;2.88;52.55;100968.63;1769075;79;21177;-53
2022/01/07 12:48:18;;;;;;;2.72;1.98;;;;;;;2.94;51.79;100971.75;1767049;80;21659;-51
2022/01/07 12:51:29;;;;;;;;;;;;;;;2.94;51.50;100969.05;1772113;79;21590;-53
2022/01/07 12:54:33;;;;;;;5.50;3.02;;;;;;;2.94;51.39;100981.20;1768920;79;20212;-52
2022/01/07 12:57:52;;;;;;;3.58;2.52;;;;;;;2.93;51.80;100996.19;1765719;81;21726;-51
2022/01/07 13:00:58;;;;;;;2.62;1.85;;;;;;;2.92;51.88;100999.37;1762778;81;21711;-52
2022/01/07 13:04:14;;;;;;;3.10;2.02;;;;;;;2.91;52.13;101006.25;1742420;81;21719;-53
2022/01/07 13:07:20;;;;;;;3.55;2.00;;;;;;;2.89;52.63;101013.60;1738514;81;21193;-51
2022/01/07 13:10:37;;;;;;;3.05;2.25;;;;;;;2.91;53.02;101015.23;1738749;81;21200;-52
2022/01/07 13:13:44;;;;;;;5.08;2.33;;;;;;;2.91;53.20;101022.47;1742432;81;21188;-51
2022/01/07 13:16:50;;;;;;;3.65;2.00;;;;;;;2.91;53.15;101030.11;1759596;81;21252;-50
2022/01/07 13:20:00;;;;;;;3.90;2.02;;;;;;;2.84;52.32;101039.63;1730957;82;21200;-51
2022/01/07 13:23:06;;;;;;;4.78;3.10;;;;;;;2.74;52.31;101035.00;1739732;80;21280;-50
2022/01/07 13:26:14;;;;;;;4.85;2.62;;;;;;;2.67;52.66;101048.56;1765954;81;21734;-51
2022/01/07 13:29:32;;;;;;;5.10;2.50;;;;;;;2.63;52.24;101048.42;1767789;81;21161;-50
2022/01/07 13:32:38;;;;;;;5.78;3.37;;;;;;;2.56;51.45;101065.56;1765850;81;21178;-52
2022/01/07 13:35:47;;;;;;;4.75;2.90;;;;;;;2.46;51.00;101071.22;1770210;81;21221;-53
2022/01/07 13:39:07;;;;;;;3.15;2.30;;;;;;;2.37;51.34;101071.00;1770510;80;21244;-52
2022/01/07 13:42:12;;;;;;;3.08;1.80;;;;;;;2.27;52.22;101079.35;1766231;81;21189;-56
2022/01/07 13:45:19;;;;;;;1.62;1.52;;;;;;;2.17;52.98;101077.78;1753417;81;21180;-52
2022/01/07 13:48:24;;;;;;;11.10;5.78;;;;;;;2.02;53.39;101086.95;1748697;81;21688;-51
2022/01/07 13:51:36;;;;;;;6.12;3.65;;;;;;;1.90;53.72;101100.41;1768553;79;21550;-52
2022/01/07 13:54:43;;;;;;;8.08;5.03;;;;;;;1.74;53.69;101101.94;1769255;80;21154;-53
2022/01/07 13:57:52;;;;;;;4.30;2.83;;;;;;;1.59;53.87;101112.89;1769328;81;21228;-53
2022/01/07 14:00:59;;;;;;;3.10;2.20;;;;;;;1.45;53.44;101116.00;1769240;79;21761;-52
2022/01/07 14:04:05;;;;;;;5.90;3.10;;;;;;;1.30;52.51;101122.38;1770103;80;21339;-52
2022/01/07 14:07:32;;;;;;;7.55;4.05;;;;;;;1.19;51.88;101142.43;1769549;79;21189;-53
2022/01/07 14:10:41;;;;;;;5.40;3.58;;;;;;;1.06;50.89;101136.58;1770467;79;21248;-52
2022/01/07 14:13:49;;;;;;;8.10;4.80;;;;;;;0.94;50.66;101142.26;1769818;80;21146;-52
2022/01/07 14:16:54;;;;;;;7.37;4.03;;;;;;;0.84;50.67;101141.09;1761937;81;21510;-52
2022/01/07 14:20:04;;;;;;;9.93;3.47;;;;;;;0.77;51.00;101146.50;1766460;80;21259;-54
2022/01/07 14:23:11;;;;;;;6.55;3.87;;;;;;;0.73;51.38;101153.52;1767805;80;21761;-52
2022/01/07 14:26:21;;;;;;;5.33;3.02;;;;;;;0.67;51.74;101154.75;1771482;79;21730;-54
2022/01/07 14:29:27;;;;;;;5.42;3.47;;;;;;;0.65;52.36;101165.25;1771127;80;21865;-52
2022/01/07 14:32:35;;;;;;;8.68;5.08;;;;;;;0.63;52.65;101182.86;1759875;80;21200;-52
2022/01/07 14:35:41;;;;;;;7.45;4.10;;;;;;;0.57;52.48;101181.86;1770478;79;21208;-53
2022/01/07 14:38:51;;;;;;;4.58;3.08;;;;;;;0.50;52.42;101179.64;1770324;80;21188;-52
2022/01/07 14:41:54;;;;;;;4.90;2.40;;;;;;;0.46;52.34;101191.06;1772967;80;21217;-53
2022/01/07 14:45:00;;;;;;;3.58;2.45;;;;;;;0.40;52.47;101190.10;1763557;80;21235;-52
2022/01/07 14:48:06;;;;;;;4.22;2.55;;;;;;;0.38;52.60;101188.47;1730153;82;21209;-53